Startpagina
METAR-TAF:

METAR-TAF

Vliegvelden :

Tumbes, Peru

breedte: 03-33S, lengte: 080-24W, hoogte: 25 m

Actueel weer

Dit bericht is 18 minuten geleden gemaakt, om 21:00 UTC
Wind 4 kt uit het noordnoordwesten, variërend tussen het westen en het noorden
Temperatuur 25°C
Vochtigheid 74%
Druk 1009 hPa
Zicht 10 km of meer
Verspreide wolken op 1400 ft

METAR: SPME 182100Z 34004KT 280V010 9999 SCT014 25/20 Q1009 RMK BIRD HAZARD RWY 32/14 PP000

Tijdstip: 16:18 (21:18 UTC)

Verwachting

Dit bericht is 4 uur en het 18 minuten geleden gemaakt, om 17:00 UTC
Verwachting geldig van 18 om 18 UTC tot 19 om 18 UTC
Wind 8 kt uit het noordnoordwesten
Zicht 10 km of meer
Verspreide wolken op 1400 ft
Verspreide wolken op 3300 ft
Wijzigt naar
van 18 om 21 UTC tot 18 om 23 UTC
Gebroken wolken op 1300 ft
Wijzigt naar
van 18 om 23 UTC tot 19 om 02 UTC
Wind 3 kt uit het westen
Geheel bewolkt op 1200 ft

TAF: SPME 181700Z 1818/1918 33008KT 9999 SCT014 SCT033 TX25/1819Z TN19/1911Z BECMG 1821/1823 BKN013 BECMG 1823/1902 27003KT OVC012

Waarnemingen en weersverwachtingen van meer dan 4000 vliegvelden (METAR en TAF).

De beschikbare stations zijn de gele en rode punten op de kaart.

Ga met uw muis naar het station om de naam te zien.

Klik dan om waarnemingen en weersverwachtingen te zien.

kaart wijzigen: klik op de groene knoppen met een zwart kruis om in te zoomen, op de groene knop met een streepje om uit te zoomen of op de groene pijlen voor aangrenzende kaarten.


METAR-TAF: